Terminal Aerodrome Forecast
Issued by NWS

Home | Current Version | Previous Version | Text Only | Print | Product List | Glossary On
Versions: 1 2 3 4 5 6 7 8 9 10 11 12 13 14 15 16 17 18 19
000
FTUS42 KTAE 051013 AAA
TAFABY
TAF AMD
KABY 051013Z 0510/0606 00000KT P6SM SCT120
     FM051300 24005KT P6SM SCT005 BKN015
     FM051500 27010KT P6SM VCTS BKN020CB
      TEMPO 0515/0517 VRB15G25KT 2SM TSRA SCT020 BKN030CB
     FM052200 25008KT P6SM SCT120 BKN250=

USA.gov is the U.S. government's official web portal to all federal, state and local government web resources and services.